Danbury, Wisconsin
Current Conditions -  °F | °C
As of 5:35 PM on Saturday 22 Nov 2014 (Local Time) from KRZN Reporting Station
Haze Haze  
Wind Chill: 25°   Ceiling: 500
Heat Index: 34°   Visibility: 5mi
Dew Point: 32°   Wind: 12mph
Humidity: 95%   Direction: 160°SSE
Pressure: 29.64"   Gusts: NA
Location:  46.01°N, 92.37°W
Report Text: KRZN 222335Z AUTO 16010KT 5SM BR OVC005 01/00 A2964 RMK AO2 T00090002
Loading
Personal Weather Stations






























Interactive Weather Map New forecast layout! Learn more

10-Day Weather Forecast

Advertisements
Track Severe Weather on mobile